Maryland Heights, Missouri
Current Conditions -  °F | °C
As of 10:51 AM on Friday 28 Nov 2014 (Local Time) from KSTL Reporting Station
Few Clouds Few Clouds  
Wind Chill:   Ceiling: Unl
Heat Index:   Visibility: 10mi
Dew Point: -1°   Wind: 17mph
Humidity: 62%   Direction: 170°S
Pressure: 30.13"   Gusts: 23mph
Location:  38.72°N, 90.44°W
Report Text: KSTL 281651Z 17015G20KT 10SM FEW250 06/M01 A3013 RMK AO2 PRESFR SLP213 T00561011
Loading
Personal Weather Stations






























Interactive Weather Map New forecast layout! Learn more

10-Day Weather Forecast

Advertisements
Track Severe Weather on mobile